sensor_id;sensor_type;location;lat;lon;timestamp;P1;durP1;ratioP1;P2;durP2;ratioP2
83096;SDS011;72968;49.460;11.004;2024-03-02T00:00:26;44.08;;;19.52;;
83096;SDS011;72968;49.460;11.004;2024-03-02T00:03:02;44.75;;;19.90;;
83096;SDS011;72968;49.460;11.004;2024-03-02T00:05:34;43.70;;;18.40;;
83096;SDS011;72968;49.460;11.004;2024-03-02T00:08:05;47.85;;;18.52;;
83096;SDS011;72968;49.460;11.004;2024-03-02T00:10:39;50.70;;;19.45;;
83096;SDS011;72968;49.460;11.004;2024-03-02T00:13:11;47.83;;;18.50;;
83096;SDS011;72968;49.460;11.004;2024-03-02T00:15:46;44.15;;;18.15;;
83096;SDS011;72968;49.460;11.004;2024-03-02T00:18:19;47.10;;;18.42;;
83096;SDS011;72968;49.460;11.004;2024-03-02T00:20:52;42.13;;;17.38;;
83096;SDS011;72968;49.460;11.004;2024-03-02T00:23:24;46.83;;;18.00;;
83096;SDS011;72968;49.460;11.004;2024-03-02T00:25:56;40.63;;;17.00;;
83096;SDS011;72968;49.460;11.004;2024-03-02T00:28:27;40.75;;;16.20;;
83096;SDS011;72968;49.460;11.004;2024-03-02T00:31:01;38.70;;;17.00;;
83096;SDS011;72968;49.460;11.004;2024-03-02T00:33:35;41.67;;;18.13;;
83096;SDS011;72968;49.460;11.004;2024-03-02T00:36:07;43.92;;;18.40;;
83096;SDS011;72968;49.460;11.004;2024-03-02T00:38:42;47.90;;;19.40;;
83096;SDS011;72968;49.460;11.004;2024-03-02T00:41:15;39.13;;;16.90;;
83096;SDS011;72968;49.460;11.004;2024-03-02T00:43:50;43.20;;;18.63;;
83096;SDS011;72968;49.460;11.004;2024-03-02T00:46:24;39.03;;;17.33;;
83096;SDS011;72968;49.460;11.004;2024-03-02T00:48:57;51.08;;;19.35;;
83096;SDS011;72968;49.460;11.004;2024-03-02T00:51:30;43.20;;;18.90;;
83096;SDS011;72968;49.460;11.004;2024-03-02T00:54:03;48.15;;;18.42;;
83096;SDS011;72968;49.460;11.004;2024-03-02T00:56:35;42.45;;;18.10;;
83096;SDS011;72968;49.460;11.004;2024-03-02T00:59:06;41.67;;;17.98;;
83096;SDS011;72968;49.460;11.004;2024-03-02T01:01:40;41.10;;;18.33;;
83096;SDS011;72968;49.460;11.004;2024-03-02T01:04:13;41.33;;;16.98;;
83096;SDS011;72968;49.460;11.004;2024-03-02T01:06:45;41.90;;;17.48;;
83096;SDS011;72968;49.460;11.004;2024-03-02T01:09:17;35.55;;;16.67;;
83096;SDS011;72968;49.460;11.004;2024-03-02T01:11:49;40.40;;;16.90;;
83096;SDS011;72968;49.460;11.004;2024-03-02T01:14:22;46.58;;;18.70;;
83096;SDS011;72968;49.460;11.004;2024-03-02T01:16:54;39.45;;;18.00;;
83096;SDS011;72968;49.460;11.004;2024-03-02T01:19:27;42.42;;;17.90;;
83096;SDS011;72968;49.460;11.004;2024-03-02T01:21:59;44.47;;;18.40;;
83096;SDS011;72968;49.460;11.004;2024-03-02T01:24:31;48.90;;;18.33;;
83096;SDS011;72968;49.460;11.004;2024-03-02T01:27:03;49.08;;;18.67;;
83096;SDS011;72968;49.460;11.004;2024-03-02T01:29:36;44.17;;;18.30;;
83096;SDS011;72968;49.460;11.004;2024-03-02T01:32:10;48.55;;;18.95;;
83096;SDS011;72968;49.460;11.004;2024-03-02T01:34:44;41.67;;;17.40;;
83096;SDS011;72968;49.460;11.004;2024-03-02T01:37:16;50.13;;;19.58;;
83096;SDS011;72968;49.460;11.004;2024-03-02T01:39:48;50.78;;;21.15;;
83096;SDS011;72968;49.460;11.004;2024-03-02T01:42:19;48.35;;;19.13;;
83096;SDS011;72968;49.460;11.004;2024-03-02T01:44:51;51.50;;;19.30;;
83096;SDS011;72968;49.460;11.004;2024-03-02T01:47:22;51.88;;;21.75;;
83096;SDS011;72968;49.460;11.004;2024-03-02T01:49:55;54.03;;;20.02;;
83096;SDS011;72968;49.460;11.004;2024-03-02T01:52:29;44.28;;;17.63;;
83096;SDS011;72968;49.460;11.004;2024-03-02T01:55:01;54.10;;;19.98;;
83096;SDS011;72968;49.460;11.004;2024-03-02T01:57:36;47.83;;;18.77;;
83096;SDS011;72968;49.460;11.004;2024-03-02T02:00:08;51.70;;;19.63;;
83096;SDS011;72968;49.460;11.004;2024-03-02T02:02:39;49.38;;;18.55;;
83096;SDS011;72968;49.460;11.004;2024-03-02T02:05:13;47.45;;;19.20;;
83096;SDS011;72968;49.460;11.004;2024-03-02T02:07:44;52.55;;;20.50;;
83096;SDS011;72968;49.460;11.004;2024-03-02T02:10:17;56.70;;;20.85;;
83096;SDS011;72968;49.460;11.004;2024-03-02T02:12:50;53.13;;;19.70;;
83096;SDS011;72968;49.460;11.004;2024-03-02T02:15:25;49.65;;;19.73;;
83096;SDS011;72968;49.460;11.004;2024-03-02T02:17:57;46.58;;;19.02;;
83096;SDS011;72968;49.460;11.004;2024-03-02T02:20:31;50.25;;;20.55;;
83096;SDS011;72968;49.460;11.004;2024-03-02T02:23:04;52.90;;;19.52;;
83096;SDS011;72968;49.460;11.004;2024-03-02T02:25:38;52.65;;;19.58;;
83096;SDS011;72968;49.460;11.004;2024-03-02T02:28:19;45.90;;;19.23;;
83096;SDS011;72968;49.460;11.004;2024-03-02T02:30:50;50.38;;;19.17;;
83096;SDS011;72968;49.460;11.004;2024-03-02T02:33:23;46.70;;;19.45;;
83096;SDS011;72968;49.460;11.004;2024-03-02T02:35:57;50.28;;;19.20;;
83096;SDS011;72968;49.460;11.004;2024-03-02T02:38:31;54.65;;;20.25;;
83096;SDS011;72968;49.460;11.004;2024-03-02T02:41:03;52.67;;;20.23;;
83096;SDS011;72968;49.460;11.004;2024-03-02T02:43:35;54.30;;;20.90;;
83096;SDS011;72968;49.460;11.004;2024-03-02T02:46:07;51.05;;;19.95;;
83096;SDS011;72968;49.460;11.004;2024-03-02T02:48:38;51.40;;;19.90;;
83096;SDS011;72968;49.460;11.004;2024-03-02T02:51:10;55.38;;;21.70;;
83096;SDS011;72968;49.460;11.004;2024-03-02T02:53:43;50.05;;;19.88;;
83096;SDS011;72968;49.460;11.004;2024-03-02T02:56:14;42.55;;;19.42;;
83096;SDS011;72968;49.460;11.004;2024-03-02T02:58:46;49.55;;;19.25;;
83096;SDS011;72968;49.460;11.004;2024-03-02T03:01:17;44.63;;;17.92;;
83096;SDS011;72968;49.460;11.004;2024-03-02T03:03:49;44.65;;;18.25;;
83096;SDS011;72968;49.460;11.004;2024-03-02T03:06:20;45.40;;;19.00;;
83096;SDS011;72968;49.460;11.004;2024-03-02T03:08:53;51.75;;;19.95;;
83096;SDS011;72968;49.460;11.004;2024-03-02T03:11:25;49.30;;;19.92;;
83096;SDS011;72968;49.460;11.004;2024-03-02T03:13:56;43.80;;;18.67;;
83096;SDS011;72968;49.460;11.004;2024-03-02T03:16:28;44.70;;;17.85;;
83096;SDS011;72968;49.460;11.004;2024-03-02T03:18:59;40.33;;;17.67;;
83096;SDS011;72968;49.460;11.004;2024-03-02T03:21:30;42.92;;;16.88;;
83096;SDS011;72968;49.460;11.004;2024-03-02T03:24:04;44.28;;;17.67;;
83096;SDS011;72968;49.460;11.004;2024-03-02T03:26:36;43.03;;;18.08;;
83096;SDS011;72968;49.460;11.004;2024-03-02T03:29:07;36.65;;;16.63;;
83096;SDS011;72968;49.460;11.004;2024-03-02T03:31:39;42.83;;;17.35;;
83096;SDS011;72968;49.460;11.004;2024-03-02T03:34:11;39.25;;;16.33;;
83096;SDS011;72968;49.460;11.004;2024-03-02T03:36:46;35.85;;;15.93;;
83096;SDS011;72968;49.460;11.004;2024-03-02T03:39:23;44.38;;;19.00;;
83096;SDS011;72968;49.460;11.004;2024-03-02T03:41:55;39.28;;;17.08;;
83096;SDS011;72968;49.460;11.004;2024-03-02T03:44:26;38.33;;;16.10;;
83096;SDS011;72968;49.460;11.004;2024-03-02T03:46:59;41.90;;;17.13;;
83096;SDS011;72968;49.460;11.004;2024-03-02T03:49:32;38.38;;;16.45;;
83096;SDS011;72968;49.460;11.004;2024-03-02T03:52:03;32.20;;;14.10;;
83096;SDS011;72968;49.460;11.004;2024-03-02T03:54:36;33.10;;;15.48;;
83096;SDS011;72968;49.460;11.004;2024-03-02T03:57:13;42.92;;;18.50;;
83096;SDS011;72968;49.460;11.004;2024-03-02T03:59:47;35.25;;;16.27;;
83096;SDS011;72968;49.460;11.004;2024-03-02T04:02:18;33.17;;;14.77;;
83096;SDS011;72968;49.460;11.004;2024-03-02T04:04:50;34.63;;;15.70;;
83096;SDS011;72968;49.460;11.004;2024-03-02T04:07:21;38.70;;;16.33;;
83096;SDS011;72968;49.460;11.004;2024-03-02T04:09:54;40.95;;;15.98;;
83096;SDS011;72968;49.460;11.004;2024-03-02T04:12:25;33.70;;;15.30;;
83096;SDS011;72968;49.460;11.004;2024-03-02T04:14:57;39.00;;;16.92;;
83096;SDS011;72968;49.460;11.004;2024-03-02T04:17:28;37.75;;;15.55;;
83096;SDS011;72968;49.460;11.004;2024-03-02T04:20:00;32.85;;;14.93;;
83096;SDS011;72968;49.460;11.004;2024-03-02T04:22:32;39.10;;;15.35;;
83096;SDS011;72968;49.460;11.004;2024-03-02T04:25:07;36.30;;;14.93;;
83096;SDS011;72968;49.460;11.004;2024-03-02T04:27:39;26.88;;;11.95;;
83096;SDS011;72968;49.460;11.004;2024-03-02T04:30:11;31.17;;;13.63;;
83096;SDS011;72968;49.460;11.004;2024-03-02T04:32:43;34.28;;;13.27;;
83096;SDS011;72968;49.460;11.004;2024-03-02T04:35:16;29.55;;;12.38;;
83096;SDS011;72968;49.460;11.004;2024-03-02T04:37:47;28.88;;;13.15;;
83096;SDS011;72968;49.460;11.004;2024-03-02T04:40:21;32.78;;;12.95;;
83096;SDS011;72968;49.460;11.004;2024-03-02T04:42:52;28.02;;;11.90;;
83096;SDS011;72968;49.460;11.004;2024-03-02T04:45:25;28.60;;;13.05;;
83096;SDS011;72968;49.460;11.004;2024-03-02T04:47:57;32.90;;;14.23;;
83096;SDS011;72968;49.460;11.004;2024-03-02T04:50:28;28.00;;;11.30;;
83096;SDS011;72968;49.460;11.004;2024-03-02T04:52:59;35.13;;;13.98;;
83096;SDS011;72968;49.460;11.004;2024-03-02T04:55:32;36.60;;;12.50;;
83096;SDS011;72968;49.460;11.004;2024-03-02T04:58:33;39.03;;;14.70;;
83096;SDS011;72968;49.460;11.004;2024-03-02T05:01:09;35.13;;;14.15;;
83096;SDS011;72968;49.460;11.004;2024-03-02T05:03:41;34.92;;;13.65;;
83096;SDS011;72968;49.460;11.004;2024-03-02T05:06:13;28.58;;;11.75;;
83096;SDS011;72968;49.460;11.004;2024-03-02T05:08:46;32.55;;;12.98;;
83096;SDS011;72968;49.460;11.004;2024-03-02T05:11:19;29.98;;;12.70;;
83096;SDS011;72968;49.460;11.004;2024-03-02T05:14:14;31.70;;;13.73;;
83096;SDS011;72968;49.460;11.004;2024-03-02T05:16:45;38.22;;;14.48;;
83096;SDS011;72968;49.460;11.004;2024-03-02T05:19:17;38.35;;;14.13;;
83096;SDS011;72968;49.460;11.004;2024-03-02T05:21:50;34.55;;;13.10;;
83096;SDS011;72968;49.460;11.004;2024-03-02T05:24:22;37.95;;;13.32;;
83096;SDS011;72968;49.460;11.004;2024-03-02T05:26:55;36.58;;;14.30;;
83096;SDS011;72968;49.460;11.004;2024-03-02T05:29:26;32.22;;;14.60;;
83096;SDS011;72968;49.460;11.004;2024-03-02T05:31:58;42.83;;;15.55;;
83096;SDS011;72968;49.460;11.004;2024-03-02T05:34:30;38.97;;;15.23;;
83096;SDS011;72968;49.460;11.004;2024-03-02T05:37:03;41.92;;;15.10;;
83096;SDS011;72968;49.460;11.004;2024-03-02T05:39:34;39.15;;;14.27;;
83096;SDS011;72968;49.460;11.004;2024-03-02T05:42:07;47.17;;;15.45;;
83096;SDS011;72968;49.460;11.004;2024-03-02T05:44:38;30.02;;;11.05;;
83096;SDS011;72968;49.460;11.004;2024-03-02T05:47:10;36.65;;;12.35;;
83096;SDS011;72968;49.460;11.004;2024-03-02T05:49:42;38.85;;;14.38;;
83096;SDS011;72968;49.460;11.004;2024-03-02T05:52:14;42.90;;;15.65;;
83096;SDS011;72968;49.460;11.004;2024-03-02T05:54:45;48.70;;;16.65;;
83096;SDS011;72968;49.460;11.004;2024-03-02T05:57:21;44.97;;;14.43;;
83096;SDS011;72968;49.460;11.004;2024-03-02T06:00:15;38.90;;;13.68;;
83096;SDS011;72968;49.460;11.004;2024-03-02T06:02:47;38.92;;;13.85;;
83096;SDS011;72968;49.460;11.004;2024-03-02T06:05:18;40.08;;;14.90;;
83096;SDS011;72968;49.460;11.004;2024-03-02T06:07:50;42.88;;;15.82;;
83096;SDS011;72968;49.460;11.004;2024-03-02T06:10:21;48.20;;;15.25;;
83096;SDS011;72968;49.460;11.004;2024-03-02T06:12:54;54.85;;;16.00;;
83096;SDS011;72968;49.460;11.004;2024-03-02T06:15:26;43.63;;;15.75;;
83096;SDS011;72968;49.460;11.004;2024-03-02T06:17:58;48.13;;;14.93;;
83096;SDS011;72968;49.460;11.004;2024-03-02T06:20:30;46.72;;;16.10;;
83096;SDS011;72968;49.460;11.004;2024-03-02T06:23:02;49.78;;;16.02;;
83096;SDS011;72968;49.460;11.004;2024-03-02T06:25:34;40.47;;;14.77;;
83096;SDS011;72968;49.460;11.004;2024-03-02T06:28:07;37.70;;;14.27;;
83096;SDS011;72968;49.460;11.004;2024-03-02T06:30:40;40.67;;;13.98;;
83096;SDS011;72968;49.460;11.004;2024-03-02T06:33:12;38.38;;;13.45;;
83096;SDS011;72968;49.460;11.004;2024-03-02T06:35:44;45.50;;;14.95;;
83096;SDS011;72968;49.460;11.004;2024-03-02T06:38:15;48.08;;;15.75;;
83096;SDS011;72968;49.460;11.004;2024-03-02T06:40:46;40.72;;;14.48;;
83096;SDS011;72968;49.460;11.004;2024-03-02T06:43:22;41.08;;;14.80;;
83096;SDS011;72968;49.460;11.004;2024-03-02T06:45:54;49.17;;;15.40;;
83096;SDS011;72968;49.460;11.004;2024-03-02T06:48:25;47.85;;;15.77;;
83096;SDS011;72968;49.460;11.004;2024-03-02T06:50:58;48.90;;;16.77;;
83096;SDS011;72968;49.460;11.004;2024-03-02T06:53:30;42.92;;;14.32;;
83096;SDS011;72968;49.460;11.004;2024-03-02T06:56:04;45.40;;;15.23;;
83096;SDS011;72968;49.460;11.004;2024-03-02T06:58:37;38.92;;;15.07;;
83096;SDS011;72968;49.460;11.004;2024-03-02T07:01:08;43.35;;;15.98;;
83096;SDS011;72968;49.460;11.004;2024-03-02T07:03:41;38.03;;;13.52;;
83096;SDS011;72968;49.460;11.004;2024-03-02T07:06:13;38.50;;;13.68;;
83096;SDS011;72968;49.460;11.004;2024-03-02T07:08:44;32.20;;;13.82;;
83096;SDS011;72968;49.460;11.004;2024-03-02T07:11:16;39.95;;;14.93;;
83096;SDS011;72968;49.460;11.004;2024-03-02T07:13:51;36.17;;;13.82;;
83096;SDS011;72968;49.460;11.004;2024-03-02T07:16:22;29.02;;;12.95;;
83096;SDS011;72968;49.460;11.004;2024-03-02T07:18:58;23.73;;;10.73;;
83096;SDS011;72968;49.460;11.004;2024-03-02T07:21:31;24.70;;;10.35;;
83096;SDS011;72968;49.460;11.004;2024-03-02T07:24:03;21.80;;;10.48;;
83096;SDS011;72968;49.460;11.004;2024-03-02T07:26:35;19.15;;;10.13;;
83096;SDS011;72968;49.460;11.004;2024-03-02T07:29:09;21.23;;;10.45;;
83096;SDS011;72968;49.460;11.004;2024-03-02T07:31:40;20.65;;;10.32;;
83096;SDS011;72968;49.460;11.004;2024-03-02T07:34:12;19.52;;;11.00;;
83096;SDS011;72968;49.460;11.004;2024-03-02T07:36:43;18.67;;;8.90;;
83096;SDS011;72968;49.460;11.004;2024-03-02T07:39:16;20.73;;;9.82;;
83096;SDS011;72968;49.460;11.004;2024-03-02T07:41:47;20.75;;;9.48;;
83096;SDS011;72968;49.460;11.004;2024-03-02T07:44:20;19.52;;;9.70;;
83096;SDS011;72968;49.460;11.004;2024-03-02T07:46:52;19.23;;;9.32;;
83096;SDS011;72968;49.460;11.004;2024-03-02T07:49:23;23.27;;;10.48;;
83096;SDS011;72968;49.460;11.004;2024-03-02T07:51:55;18.35;;;9.27;;
83096;SDS011;72968;49.460;11.004;2024-03-02T07:54:26;19.92;;;9.50;;
83096;SDS011;72968;49.460;11.004;2024-03-02T07:56:58;21.30;;;9.35;;
83096;SDS011;72968;49.460;11.004;2024-03-02T07:59:33;19.70;;;9.80;;
83096;SDS011;72968;49.460;11.004;2024-03-02T08:02:05;20.15;;;9.95;;
83096;SDS011;72968;49.460;11.004;2024-03-02T08:04:38;19.08;;;9.43;;
83096;SDS011;72968;49.460;11.004;2024-03-02T08:07:09;19.83;;;9.20;;
83096;SDS011;72968;49.460;11.004;2024-03-02T08:09:41;19.77;;;10.15;;
83096;SDS011;72968;49.460;11.004;2024-03-02T08:12:13;20.85;;;9.23;;
83096;SDS011;72968;49.460;11.004;2024-03-02T08:14:47;16.50;;;8.20;;
83096;SDS011;72968;49.460;11.004;2024-03-02T08:17:18;18.63;;;9.15;;
83096;SDS011;72968;49.460;11.004;2024-03-02T08:19:50;19.85;;;9.25;;
83096;SDS011;72968;49.460;11.004;2024-03-02T08:22:22;17.30;;;8.93;;
83096;SDS011;72968;49.460;11.004;2024-03-02T08:24:55;20.75;;;9.38;;
83096;SDS011;72968;49.460;11.004;2024-03-02T08:27:28;20.50;;;9.35;;
83096;SDS011;72968;49.460;11.004;2024-03-02T08:30:01;16.75;;;9.13;;
83096;SDS011;72968;49.460;11.004;2024-03-02T08:32:36;19.00;;;9.23;;
83096;SDS011;72968;49.460;11.004;2024-03-02T08:35:08;21.35;;;9.85;;
83096;SDS011;72968;49.460;11.004;2024-03-02T08:37:42;18.08;;;8.63;;
83096;SDS011;72968;49.460;11.004;2024-03-02T08:40:13;16.52;;;9.50;;
83096;SDS011;72968;49.460;11.004;2024-03-02T08:42:50;18.33;;;8.23;;
83096;SDS011;72968;49.460;11.004;2024-03-02T08:45:23;13.80;;;7.35;;
83096;SDS011;72968;49.460;11.004;2024-03-02T08:47:57;15.32;;;8.32;;
83096;SDS011;72968;49.460;11.004;2024-03-02T08:50:29;17.05;;;9.13;;
83096;SDS011;72968;49.460;11.004;2024-03-02T08:53:01;14.95;;;7.97;;
83096;SDS011;72968;49.460;11.004;2024-03-02T08:55:32;17.23;;;7.88;;
83096;SDS011;72968;49.460;11.004;2024-03-02T08:58:04;14.10;;;7.50;;
83096;SDS011;72968;49.460;11.004;2024-03-02T09:00:37;15.93;;;7.18;;
83096;SDS011;72968;49.460;11.004;2024-03-02T09:03:08;14.73;;;7.78;;
83096;SDS011;72968;49.460;11.004;2024-03-02T09:05:40;14.88;;;7.15;;
83096;SDS011;72968;49.460;11.004;2024-03-02T09:08:13;13.88;;;6.90;;
83096;SDS011;72968;49.460;11.004;2024-03-02T09:10:44;12.55;;;6.63;;
83096;SDS011;72968;49.460;11.004;2024-03-02T09:13:16;15.80;;;7.47;;
83096;SDS011;72968;49.460;11.004;2024-03-02T09:15:51;15.23;;;6.68;;
83096;SDS011;72968;49.460;11.004;2024-03-02T09:18:22;13.35;;;6.88;;
83096;SDS011;72968;49.460;11.004;2024-03-02T09:20:54;12.00;;;6.88;;
83096;SDS011;72968;49.460;11.004;2024-03-02T09:23:26;12.30;;;6.38;;
83096;SDS011;72968;49.460;11.004;2024-03-02T09:25:58;12.60;;;6.43;;
83096;SDS011;72968;49.460;11.004;2024-03-02T09:28:29;11.57;;;6.25;;
83096;SDS011;72968;49.460;11.004;2024-03-02T09:31:02;12.77;;;6.47;;
83096;SDS011;72968;49.460;11.004;2024-03-02T09:33:33;11.38;;;6.40;;
83096;SDS011;72968;49.460;11.004;2024-03-02T09:36:05;12.65;;;6.47;;
83096;SDS011;72968;49.460;11.004;2024-03-02T09:38:36;10.25;;;6.22;;
83096;SDS011;72968;49.460;11.004;2024-03-02T09:41:08;12.48;;;6.22;;
83096;SDS011;72968;49.460;11.004;2024-03-02T09:43:40;12.27;;;6.63;;
83096;SDS011;72968;49.460;11.004;2024-03-02T09:46:13;11.32;;;6.88;;
83096;SDS011;72968;49.460;11.004;2024-03-02T09:48:44;10.73;;;5.10;;
83096;SDS011;72968;49.460;11.004;2024-03-02T09:51:16;9.02;;;5.85;;
83096;SDS011;72968;49.460;11.004;2024-03-02T09:53:49;10.70;;;6.00;;
83096;SDS011;72968;49.460;11.004;2024-03-02T09:56:21;11.07;;;5.90;;
83096;SDS011;72968;49.460;11.004;2024-03-02T09:58:52;9.60;;;5.32;;
83096;SDS011;72968;49.460;11.004;2024-03-02T10:01:25;11.48;;;6.07;;
83096;SDS011;72968;49.460;11.004;2024-03-02T10:03:57;9.73;;;5.95;;
83096;SDS011;72968;49.460;11.004;2024-03-02T10:06:30;11.18;;;5.80;;
83096;SDS011;72968;49.460;11.004;2024-03-02T10:09:01;9.30;;;5.90;;
83096;SDS011;72968;49.460;11.004;2024-03-02T10:11:33;12.15;;;6.13;;
83096;SDS011;72968;49.460;11.004;2024-03-02T10:14:08;9.43;;;5.60;;
83096;SDS011;72968;49.460;11.004;2024-03-02T10:16:44;10.27;;;5.40;;
83096;SDS011;72968;49.460;11.004;2024-03-02T10:19:19;9.82;;;6.00;;
83096;SDS011;72968;49.460;11.004;2024-03-02T10:21:51;10.07;;;5.80;;
83096;SDS011;72968;49.460;11.004;2024-03-02T10:24:23;8.73;;;5.57;;
83096;SDS011;72968;49.460;11.004;2024-03-02T10:26:55;10.00;;;5.85;;
83096;SDS011;72968;49.460;11.004;2024-03-02T10:29:29;9.07;;;4.88;;
83096;SDS011;72968;49.460;11.004;2024-03-02T10:32:05;12.90;;;6.57;;
83096;SDS011;72968;49.460;11.004;2024-03-02T10:34:38;9.13;;;5.38;;
83096;SDS011;72968;49.460;11.004;2024-03-02T10:37:12;8.77;;;5.30;;
83096;SDS011;72968;49.460;11.004;2024-03-02T10:39:45;10.27;;;5.57;;
83096;SDS011;72968;49.460;11.004;2024-03-02T10:42:17;10.63;;;5.38;;
83096;SDS011;72968;49.460;11.004;2024-03-02T10:44:51;13.10;;;7.10;;
83096;SDS011;72968;49.460;11.004;2024-03-02T10:47:26;8.93;;;5.60;;
83096;SDS011;72968;49.460;11.004;2024-03-02T10:49:58;11.38;;;5.65;;
83096;SDS011;72968;49.460;11.004;2024-03-02T10:52:30;10.35;;;5.25;;
83096;SDS011;72968;49.460;11.004;2024-03-02T10:55:02;8.07;;;5.28;;
83096;SDS011;72968;49.460;11.004;2024-03-02T10:57:40;9.25;;;5.70;;
83096;SDS011;72968;49.460;11.004;2024-03-02T11:00:12;9.10;;;5.65;;
83096;SDS011;72968;49.460;11.004;2024-03-02T11:02:49;8.50;;;5.25;;
83096;SDS011;72968;49.460;11.004;2024-03-02T11:05:23;7.93;;;5.03;;
83096;SDS011;72968;49.460;11.004;2024-03-02T11:08:00;8.45;;;5.32;;
83096;SDS011;72968;49.460;11.004;2024-03-02T11:10:34;7.65;;;4.70;;
83096;SDS011;72968;49.460;11.004;2024-03-02T11:13:07;10.15;;;5.75;;
83096;SDS011;72968;49.460;11.004;2024-03-02T11:15:40;8.77;;;5.18;;
83096;SDS011;72968;49.460;11.004;2024-03-02T11:18:16;8.20;;;4.65;;
83096;SDS011;72968;49.460;11.004;2024-03-02T11:20:47;9.02;;;5.80;;
83096;SDS011;72968;49.460;11.004;2024-03-02T11:23:19;9.70;;;6.00;;
83096;SDS011;72968;49.460;11.004;2024-03-02T11:26:18;9.73;;;6.13;;
83096;SDS011;72968;49.460;11.004;2024-03-02T11:28:49;9.93;;;6.43;;
83096;SDS011;72968;49.460;11.004;2024-03-02T11:31:21;15.05;;;6.38;;
83096;SDS011;72968;49.460;11.004;2024-03-02T11:33:54;13.20;;;6.72;;
83096;SDS011;72968;49.460;11.004;2024-03-02T11:36:25;12.45;;;7.18;;
83096;SDS011;72968;49.460;11.004;2024-03-02T11:38:57;11.65;;;7.32;;
83096;SDS011;72968;49.460;11.004;2024-03-02T11:41:30;12.70;;;7.65;;
83096;SDS011;72968;49.460;11.004;2024-03-02T11:44:03;11.43;;;7.20;;
83096;SDS011;72968;49.460;11.004;2024-03-02T11:46:35;11.57;;;7.15;;
83096;SDS011;72968;49.460;11.004;2024-03-02T11:49:10;11.57;;;7.68;;
83096;SDS011;72968;49.460;11.004;2024-03-02T11:51:50;11.13;;;7.28;;
83096;SDS011;72968;49.460;11.004;2024-03-02T11:54:24;13.18;;;7.93;;
83096;SDS011;72968;49.460;11.004;2024-03-02T11:56:56;11.32;;;7.15;;
83096;SDS011;72968;49.460;11.004;2024-03-02T11:59:27;9.98;;;6.80;;
83096;SDS011;72968;49.460;11.004;2024-03-02T12:01:59;10.73;;;7.45;;
83096;SDS011;72968;49.460;11.004;2024-03-02T12:04:36;13.45;;;8.45;;
83096;SDS011;72968;49.460;11.004;2024-03-02T12:07:12;10.75;;;6.57;;
83096;SDS011;72968;49.460;11.004;2024-03-02T12:09:49;11.90;;;7.30;;
83096;SDS011;72968;49.460;11.004;2024-03-02T12:12:21;11.43;;;6.82;;
83096;SDS011;72968;49.460;11.004;2024-03-02T12:14:55;12.48;;;6.05;;
83096;SDS011;72968;49.460;11.004;2024-03-02T12:17:27;12.15;;;7.50;;
83096;SDS011;72968;49.460;11.004;2024-03-02T12:19:59;11.57;;;6.82;;
83096;SDS011;72968;49.460;11.004;2024-03-02T12:22:33;16.13;;;8.77;;
83096;SDS011;72968;49.460;11.004;2024-03-02T12:25:05;12.85;;;8.02;;
83096;SDS011;72968;49.460;11.004;2024-03-02T12:27:38;14.20;;;7.40;;
83096;SDS011;72968;49.460;11.004;2024-03-02T12:30:10;14.73;;;7.90;;
83096;SDS011;72968;49.460;11.004;2024-03-02T12:32:42;16.05;;;7.85;;
83096;SDS011;72968;49.460;11.004;2024-03-02T12:35:15;12.65;;;7.47;;
83096;SDS011;72968;49.460;11.004;2024-03-02T12:37:47;15.80;;;8.50;;
83096;SDS011;72968;49.460;11.004;2024-03-02T12:40:19;14.95;;;8.93;;
83096;SDS011;72968;49.460;11.004;2024-03-02T12:42:52;16.73;;;9.73;;
83096;SDS011;72968;49.460;11.004;2024-03-02T12:45:24;18.35;;;9.55;;
83096;SDS011;72968;49.460;11.004;2024-03-02T12:47:55;18.17;;;9.63;;
83096;SDS011;72968;49.460;11.004;2024-03-02T12:50:28;19.52;;;10.35;;
83096;SDS011;72968;49.460;11.004;2024-03-02T12:52:59;20.35;;;10.52;;
83096;SDS011;72968;49.460;11.004;2024-03-02T12:55:31;18.35;;;10.13;;
83096;SDS011;72968;49.460;11.004;2024-03-02T12:58:02;17.15;;;10.65;;
83096;SDS011;72968;49.460;11.004;2024-03-02T13:00:34;15.60;;;9.52;;
83096;SDS011;72968;49.460;11.004;2024-03-02T13:03:08;16.85;;;9.75;;
83096;SDS011;72968;49.460;11.004;2024-03-02T13:05:41;16.20;;;9.88;;
83096;SDS011;72968;49.460;11.004;2024-03-02T13:08:13;16.73;;;10.05;;
83096;SDS011;72968;49.460;11.004;2024-03-02T13:10:45;16.38;;;9.63;;
83096;SDS011;72968;49.460;11.004;2024-03-02T13:13:17;16.95;;;9.82;;
83096;SDS011;72968;49.460;11.004;2024-03-02T13:15:49;15.70;;;8.52;;
83096;SDS011;72968;49.460;11.004;2024-03-02T13:18:21;11.98;;;7.40;;
83096;SDS011;72968;49.460;11.004;2024-03-02T13:20:57;13.80;;;8.48;;
83096;SDS011;72968;49.460;11.004;2024-03-02T13:23:31;12.75;;;8.57;;
83096;SDS011;72968;49.460;11.004;2024-03-02T13:26:03;13.68;;;7.80;;
83096;SDS011;72968;49.460;11.004;2024-03-02T13:28:34;17.13;;;9.20;;
83096;SDS011;72968;49.460;11.004;2024-03-02T13:31:06;14.60;;;8.40;;
83096;SDS011;72968;49.460;11.004;2024-03-02T13:33:38;14.20;;;8.30;;
83096;SDS011;72968;49.460;11.004;2024-03-02T13:36:15;14.73;;;8.10;;
83096;SDS011;72968;49.460;11.004;2024-03-02T13:38:48;11.55;;;8.00;;
83096;SDS011;72968;49.460;11.004;2024-03-02T13:41:19;14.73;;;7.43;;
83096;SDS011;72968;49.460;11.004;2024-03-02T13:43:51;15.02;;;7.70;;
83096;SDS011;72968;49.460;11.004;2024-03-02T13:46:23;14.23;;;6.70;;
83096;SDS011;72968;49.460;11.004;2024-03-02T13:48:55;11.50;;;6.63;;
83096;SDS011;72968;49.460;11.004;2024-03-02T13:51:29;11.48;;;6.60;;
83096;SDS011;72968;49.460;11.004;2024-03-02T13:54:03;10.65;;;6.25;;
83096;SDS011;72968;49.460;11.004;2024-03-02T13:56:38;11.77;;;7.38;;
83096;SDS011;72968;49.460;11.004;2024-03-02T13:59:10;11.00;;;6.00;;
83096;SDS011;72968;49.460;11.004;2024-03-02T14:01:42;12.35;;;6.90;;
83096;SDS011;72968;49.460;11.004;2024-03-02T14:04:16;9.95;;;5.90;;
83096;SDS011;72968;49.460;11.004;2024-03-02T14:06:49;10.85;;;6.03;;
83096;SDS011;72968;49.460;11.004;2024-03-02T14:09:20;10.93;;;6.35;;
83096;SDS011;72968;49.460;11.004;2024-03-02T14:11:55;11.45;;;6.32;;
83096;SDS011;72968;49.460;11.004;2024-03-02T14:14:27;11.23;;;6.25;;
83096;SDS011;72968;49.460;11.004;2024-03-02T14:16:59;14.20;;;6.22;;
83096;SDS011;72968;49.460;11.004;2024-03-02T14:19:34;9.95;;;6.07;;
83096;SDS011;72968;49.460;11.004;2024-03-02T14:22:16;10.00;;;5.93;;
83096;SDS011;72968;49.460;11.004;2024-03-02T14:24:48;11.68;;;6.40;;
83096;SDS011;72968;49.460;11.004;2024-03-02T14:27:19;10.70;;;6.22;;
83096;SDS011;72968;49.460;11.004;2024-03-02T14:29:52;11.23;;;6.63;;
83096;SDS011;72968;49.460;11.004;2024-03-02T14:32:24;12.32;;;7.13;;
83096;SDS011;72968;49.460;11.004;2024-03-02T14:34:57;12.98;;;6.32;;
83096;SDS011;72968;49.460;11.004;2024-03-02T14:37:31;13.32;;;7.78;;
83096;SDS011;72968;49.460;11.004;2024-03-02T14:40:03;12.63;;;6.78;;
83096;SDS011;72968;49.460;11.004;2024-03-02T14:42:36;13.93;;;7.55;;
83096;SDS011;72968;49.460;11.004;2024-03-02T14:45:08;16.85;;;8.15;;
83096;SDS011;72968;49.460;11.004;2024-03-02T14:47:39;13.00;;;6.68;;